Latest Coastal Weather Observations for Gunn Point

IDD60701

Issued at 12:25 am CST Saturday 25 October 2014 (issued every 10 minutes, with the page automatically refreshed every 10 minutes)

About coastal observations | Map of coastal stations | Coastal observations for NT | Marine services | Other Formats
Station Details ID: 014023 Name: GUNN POINT Lat: -12.25 Lon: 131.04 Height: 25.0 m
Data from the previous 72 hours. | See also: Recent months for locations in Northern Territory
Date/Time
CST
Temp

°C
Wind Pressure Rain
since 9am
mm
Weather Cloud Vis
km
Sea
Height
m
Swell
Dir
 
Speed
knots
Gust
knots
hPa Trend Height
m
Period
s
Dir
25/12:00am 24.5 ENE 0 1 1013.4 - 0.0 - - - - - - -
 
Date/Time
CST
Temp

°C
Wind Pressure Rain
since 9am
mm
Weather Cloud Vis
km
Sea
Height
m
Swell
Dir
 
Speed
knots
Gust
knots
hPa Trend Height
m
Period
s
Dir
24/11:30pm 26.3 NE 1 3 1013.6 - 0.0 - - - - - - -
24/11:00pm 27.4 NE 3 6 1013.5 - 0.0 - - - - - - -
24/10:30pm 27.9 N 1 4 1013.3 - 0.0 - - - - - - -
24/10:00pm 28.3 W 5 9 1013.0 - 0.0 - - - - - - -
24/09:30pm 28.3 WNW 4 9 1012.8 - 0.0 - - - - - - -
24/09:00pm 28.2 WNW 4 10 1012.3 - 0.0 - - - - - - -
24/08:30pm 28.5 N 5 9 1011.8 - 0.0 - - - - - - -
24/08:00pm 28.6 NNE 4 10 1011.2 - 0.0 - - - - - - -
24/07:30pm 28.6 CALM 0 1 1010.8 - 0.0 - - - - - - -
24/07:00pm 28.7 NE 4 8 1009.8 - 0.0 - - - - - - -
24/06:30pm 29.7 NE 5 9 1009.6 - 0.0 - - - - - - -
24/06:00pm 30.5 NNE 6 10 1009.5 - 0.0 - - - - - - -
24/05:30pm 31.0 N 6 10 1009.5 - 0.0 - - - - - - -
24/05:00pm 32.0 N 6 11 1009.4 - 0.0 - - - - - - -
24/04:30pm 32.7 NE 8 16 1009.1 - 0.0 - - - - - - -
24/04:00pm 32.5 NE 10 16 1009.3 - 0.0 - - - - - - -
24/03:30pm 33.3 NE 9 17 1009.5 - 0.0 - - - - - - -
24/03:00pm 32.0 NE 10 18 1009.8 - 0.0 - - - - - - -
24/02:30pm 32.7 NE 10 21 1009.9 - 0.0 - - - - - - -
24/02:00pm 32.8 NE 10 17 1010.3 - 0.0 - - - - - - -
24/01:30pm 33.1 NE 11 19 1010.6 - 0.0 - - - - - - -
24/01:00pm 33.3 NE 9 16 1011.1 - 0.0 - - - - - - -
24/12:30pm 32.1 NE 9 15 1011.7 - 0.0 - - - - - - -
24/12:00pm 34.2 ENE 8 13 1012.4 - 0.0 - - - - - - -
24/11:30am 33.7 E 5 11 1012.9 - 0.0 - - - - - - -
24/11:00am 32.4 E 6 12 1013.5 - 0.0 - - - - - - -
24/10:30am 32.4 E 8 15 1013.9 - 0.0 - - - - - - -
24/10:00am 32.2 E 6 14 1014.2 - 0.0 - - - - - - -
24/09:30am 30.7 NE 4 7 1014.4 - 0.0 - - - - - - -
24/09:00am 29.6 E 4 7 1014.7 - 0.0 - - - - - - -
24/08:30am 28.8 NE 2 4 1014.4 - 0.0 - - - - - - -
24/08:00am 28.5 CALM 0 1 1014.1 - 0.0 - - - - - - -
24/07:30am 26.1 CALM 0 0 1013.8 - 0.0 - - - - - - -
24/07:00am 22.2 CALM 0 0 1013.5 - 0.0 - - - - - - -
24/06:30am 20.5 CALM 0 0 1013.5 - 0.0 - - - - - - -
24/06:00am 20.7 CALM 0 0 1013.2 - 0.0 - - - - - - -
24/05:30am 20.8 CALM 0 0 1012.8 - 0.0 - - - - - - -
24/05:00am 20.6 CALM 0 0 1012.6 - 0.0 - - - - - - -
24/04:30am 21.0 CALM 0 0 1012.7 - 0.0 - - - - - - -
24/04:00am 21.2 CALM 0 0 1012.6 - 0.0 - - - - - - -
24/03:30am 21.3 CALM 0 0 1012.5 - 0.0 - - - - - - -
24/03:00am 21.6 CALM 0 0 1012.7 - 0.0 - - - - - - -
24/02:30am 22.1 CALM 0 0 1012.8 - 0.0 - - - - - - -
24/02:00am 23.1 CALM 0 0 1013.2 - 0.0 - - - - - - -
24/01:30am 23.6 CALM 0 0 1013.5 - 0.0 - - - - - - -
24/01:00am 25.2 CALM 0 0 1013.7 - 0.0 - - - - - - -
24/12:30am 25.3 NE 1 2 1013.8 - 0.0 - - - - - - -
24/12:00am 24.8 CALM 0 0 1013.9 - 0.0 - - - - - - -
 
Date/Time
CST
Temp

°C
Wind Pressure Rain
since 9am
mm
Weather Cloud Vis
km
Sea
Height
m
Swell
Dir
 
Speed
knots
Gust
knots
hPa Trend Height
m
Period
s
Dir
23/11:30pm 25.0 CALM 0 1 1013.9 - 0.0 - - - - - - -
23/11:00pm 26.5 CALM 0 2 1013.9 - 0.0 - - - - - - -
23/10:30pm 28.0 N 3 7 1013.8 - 0.0 - - - - - - -
23/10:00pm 28.1 WNW 5 10 1013.3 - 0.0 - - - - - - -
23/09:30pm 28.3 NW 5 12 1012.8 - 0.0 - - - - - - -
23/09:00pm 27.5 NW 3 10 1012.2 - 0.0 - - - - - - -
23/08:30pm 23.2 ESE 1 2 1011.5 - 0.0 - - - - - - -
23/08:00pm 23.4 CALM 0 0 1011.2 - 0.0 - - - - - - -
23/07:30pm 24.9 CALM 0 0 1010.7 - 0.0 - - - - - - -
23/07:00pm 27.9 CALM 0 2 1010.0 - 0.0 - - - - - - -
23/06:30pm 30.2 NNE 3 8 1009.8 - 0.0 - - - - - - -
23/06:00pm 31.2 NNE 5 10 1009.4 - 0.0 - - - - - - -
23/05:30pm 32.2 NE 6 12 1009.3 - 0.0 - - - - - - -
23/05:00pm 32.0 NNE 7 13 1009.4 - 0.0 - - - - - - -
23/04:30pm 32.6 N 6 12 1009.3 - 0.0 - - - - - - -
23/04:00pm 33.0 NNE 8 18 1009.4 - 0.0 - - - - - - -
23/03:30pm 32.3 NNE 10 18 1009.3 - 0.0 - - - - - - -
23/03:00pm 33.6 NE 10 18 1009.6 - 0.0 - - - - - - -
23/02:30pm 33.8 NE 10 17 1010.0 - 0.0 - - - - - - -
23/02:00pm 34.2 NE 9 16 1010.4 - 0.0 - - - - - - -
23/01:30pm 34.0 NE 10 15 1011.0 - 0.0 - - - - - - -
23/01:00pm 34.1 NNE 10 17 1011.6 - 0.0 - - - - - - -
23/12:30pm 34.3 E 8 15 1012.1 - 0.0 - - - - - - -
23/12:00pm 34.3 E 7 16 1012.7 - 0.0 - - - - - - -
23/11:30am 33.5 E 9 15 1013.2 - 0.0 - - - - - - -
23/11:00am 33.1 ENE 9 17 1013.5 - 0.0 - - - - - - -
23/10:30am 32.9 E 9 15 1013.9 - 0.0 - - - - - - -
23/10:00am 31.8 E 6 11 1014.3 - 0.0 - - - - - - -
23/09:30am 30.3 E 4 9 1014.3 - 0.0 - - - - - - -
23/09:00am 30.8 E 5 8 1014.6 - 0.0 - - - - - - -
23/08:30am 29.3 ENE 5 10 1014.5 - 0.0 - - - - - - -
23/08:00am 28.4 ENE 3 8 1014.4 - 0.0 - - - - - - -
23/07:30am 26.2 CALM 0 0 1014.1 - 0.0 - - - - - - -
23/07:00am 22.4 E 2 3 1013.7 - 0.0 - - - - - - -
23/06:30am 20.8 CALM 0 0 1013.4 - 0.0 - - - - - - -
23/06:00am 20.9 CALM 0 0 1013.1 - 0.0 - - - - - - -
23/05:30am 21.0 CALM 0 0 1012.8 - 0.0 - - - - - - -
23/05:00am 21.5 CALM 0 0 1012.4 - 0.0 - - - - - - -
23/04:30am 21.8 CALM 0 0 1012.2 - 0.0 - - - - - - -
23/04:00am 22.6 CALM 0 0 1012.4 - 0.0 - - - - - - -
23/03:30am 22.9 CALM 0 0 1012.5 - 0.0 - - - - - - -
23/03:00am 22.8 CALM 0 0 1012.5 - 0.0 - - - - - - -
23/02:30am 23.3 CALM 0 0 1012.5 - 0.0 - - - - - - -
23/02:00am 24.5 CALM 0 0 1013.0 - 0.0 - - - - - - -
23/01:30am 26.1 CALM 0 0 1013.2 - 0.0 - - - - - - -
23/01:00am 26.2 CALM 0 2 1013.4 - 0.0 - - - - - - -
23/12:30am 27.0 NNE 1 3 1013.5 - 0.0 - - - - - - -
23/12:00am 27.0 NE 1 3 1013.9 - 0.0 - - - - - - -
 
Date/Time
CST
Temp

°C
Wind Pressure Rain
since 9am
mm
Weather Cloud Vis
km
Sea
Height
m
Swell
Dir
 
Speed
knots
Gust
knots
hPa Trend Height
m
Period
s
Dir
22/11:30pm 27.2 N 2 4 1013.7 - 0.0 - - - - - - -
22/11:00pm 27.5 N 1 3 1013.8 - 0.0 - - - - - - -
22/10:30pm 27.7 N 4 8 1013.7 - 0.0 - - - - - - -
22/10:00pm 28.3 NNW 4 7 1013.3 - 0.0 - - - - - - -
22/09:30pm 28.5 NW 5 11 1013.0 - 0.0 - - - - - - -
22/09:00pm 28.5 WNW 6 10 1012.6 - 0.0 - - - - - - -
22/08:30pm 28.4 N 2 5 1012.2 - 0.0 - - - - - - -
22/08:00pm 26.8 ENE 3 5 1011.6 - 0.0 - - - - - - -
22/07:30pm 26.1 CALM 0 2 1011.2 - 0.0 - - - - - - -
22/07:00pm 28.4 CALM 0 1 1010.7 - 0.0 - - - - - - -
22/06:30pm 30.0 N 3 5 1010.3 - 0.0 - - - - - - -
22/06:00pm 31.1 NNE 3 6 1010.0 - 0.0 - - - - - - -
22/05:30pm 31.8 NNE 4 8 1009.8 - 0.0 - - - - - - -
22/05:00pm 32.5 NE 5 9 1009.6 - 0.0 - - - - - - -
22/04:30pm 32.1 N 6 10 1009.6 - 0.0 - - - - - - -
22/04:00pm 33.1 N 8 13 1009.8 - 0.0 - - - - - - -
22/03:30pm 33.3 N 7 13 1010.0 - 0.0 - - - - - - -
22/03:00pm 32.4 NNE 7 13 1010.2 - 0.0 - - - - - - -
22/02:30pm 33.3 NE 8 13 1010.5 - 0.0 - - - - - - -
22/02:00pm 33.7 NE 8 14 1011.0 - 0.0 - - - - - - -
22/01:30pm 32.3 ENE 8 16 1011.6 - 0.0 - - - - - - -
22/01:00pm 32.6 NE 6 14 1012.3 - 0.0 - - - - - - -
22/12:30pm 31.9 NNE 5 9 1012.9 - 0.0 - - - - - - -
22/12:00pm 31.7 NNE 4 8 1013.6 - 0.0 - - - - - - -
22/11:30am 31.6 NNE 5 11 1014.0 - 0.0 - - - - - - -
22/11:00am 30.3 NNW 2 6 1014.6 - 0.0 - - - - - - -
22/10:30am 32.3 E 5 10 1014.8 - 0.0 - - - - - - -
22/10:00am 31.8 ESE 5 10 1014.9 - 0.0 - - - - - - -
22/09:30am 31.2 N 5 7 1014.6 - 0.0 - - - - - - -
22/09:00am 29.5 ESE 2 5 1014.9 - 0.0 - - - - - - -
22/08:30am 29.3 NNE 2 5 1014.6 - 0.0 - - - - - - -
22/08:00am 28.2 N 2 5 1014.2 - 0.0 - - - - - - -
22/07:30am 25.9 CALM 0 0 1014.0 - 0.0 - - - - - - -
22/07:00am 22.5 CALM 0 0 1013.9 - 0.0 - - - - - - -
22/06:30am 20.7 CALM 0 0 1013.7 - 0.0 - - - - - - -
22/06:00am 20.5 CALM 0 0 1013.2 - 0.0 - - - - - - -
22/05:30am 20.3 CALM 0 0 1013.3 - 0.0 - - - - - - -
22/05:00am 20.8 CALM 0 0 1013.4 - 0.0 - - - - - - -
22/04:30am 20.8 CALM 0 3 1013.4 - 0.0 - - - - - - -
22/04:00am 21.4 E 1 2 1013.3 - 0.0 - - - - - - -
22/03:30am 22.0 CALM 0 1 1013.1 - 0.0 - - - - - - -
22/03:00am 22.4 ENE 1 2 1013.1 - 0.0 - - - - - - -
22/02:30am 22.6 CALM 0 0 1012.9 - 0.0 - - - - - - -
22/02:00am 23.1 CALM 0 0 1013.3 - 0.0 - - - - - - -
22/01:30am 24.7 CALM 0 0 1013.6 - 0.0 - - - - - - -
22/01:00am 25.8 N 2 4 1013.9 - 0.0 - - - - - - -
22/12:30am 26.4 N 2 4 1014.4 - 0.0 - - - - - - -

Other Formats:

Comma delimited format used in spreadsheet applications
http://www.bom.gov.au/fwo/IDD60701/IDD60701.99501.axf

JavaScript Object Notation format (JSON) in row-major order
http://www.bom.gov.au/fwo/IDD60701/IDD60701.99501.json